sensor_id;sensor_type;location;lat;lon;timestamp;temperature;humidity
3492;DHT22;1760;52.480;13.422;2022-09-09T00:01:11;16.50;99.90
3492;DHT22;1760;52.480;13.422;2022-09-09T00:03:47;16.50;99.90
3492;DHT22;1760;52.480;13.422;2022-09-09T00:06:23;16.50;99.90
3492;DHT22;1760;52.480;13.422;2022-09-09T00:08:58;16.40;99.90
3492;DHT22;1760;52.480;13.422;2022-09-09T00:11:30;16.40;99.90
3492;DHT22;1760;52.480;13.422;2022-09-09T00:14:11;16.40;99.90
3492;DHT22;1760;52.480;13.422;2022-09-09T00:16:42;16.40;99.90
3492;DHT22;1760;52.480;13.422;2022-09-09T00:19:17;16.40;99.90
3492;DHT22;1760;52.480;13.422;2022-09-09T00:22:03;16.30;99.90
3492;DHT22;1760;52.480;13.422;2022-09-09T00:24:38;16.40;99.90
3492;DHT22;1760;52.480;13.422;2022-09-09T00:27:11;16.30;99.90
3492;DHT22;1760;52.480;13.422;2022-09-09T00:29:44;16.30;99.90
3492;DHT22;1760;52.480;13.422;2022-09-09T00:32:14;16.20;99.90
3492;DHT22;1760;52.480;13.422;2022-09-09T00:34:47;16.20;99.90
3492;DHT22;1760;52.480;13.422;2022-09-09T00:37:19;16.20;99.90
3492;DHT22;1760;52.480;13.422;2022-09-09T00:39:46;16.20;99.90
3492;DHT22;1760;52.480;13.422;2022-09-09T00:42:16;16.30;99.90
3492;DHT22;1760;52.480;13.422;2022-09-09T00:44:56;16.30;99.90
3492;DHT22;1760;52.480;13.422;2022-09-09T00:47:40;16.20;99.90
3492;DHT22;1760;52.480;13.422;2022-09-09T00:50:22;16.20;99.90
3492;DHT22;1760;52.480;13.422;2022-09-09T00:52:59;16.20;99.90
3492;DHT22;1760;52.480;13.422;2022-09-09T00:55:45;16.10;99.90
3492;DHT22;1760;52.480;13.422;2022-09-09T00:58:14;16.20;99.90
3492;DHT22;1760;52.480;13.422;2022-09-09T01:00:44;16.10;99.90
3492;DHT22;1760;52.480;13.422;2022-09-09T01:03:25;16.10;99.90
3492;DHT22;1760;52.480;13.422;2022-09-09T01:06:12;16.10;99.90
3492;DHT22;1760;52.480;13.422;2022-09-09T01:08:58;16.10;99.90
3492;DHT22;1760;52.480;13.422;2022-09-09T01:11:33;16.10;99.90
3492;DHT22;1760;52.480;13.422;2022-09-09T01:14:13;16.00;99.90
3492;DHT22;1760;52.480;13.422;2022-09-09T01:16:42;16.00;99.90
3492;DHT22;1760;52.480;13.422;2022-09-09T01:19:10;16.00;99.90
3492;DHT22;1760;52.480;13.422;2022-09-09T01:21:49;16.00;99.90
3492;DHT22;1760;52.480;13.422;2022-09-09T01:24:24;16.00;99.90
3492;DHT22;1760;52.480;13.422;2022-09-09T01:27:07;16.00;99.90
3492;DHT22;1760;52.480;13.422;2022-09-09T01:29:37;15.90;99.90
3492;DHT22;1760;52.480;13.422;2022-09-09T01:32:38;16.00;99.90
3492;DHT22;1760;52.480;13.422;2022-09-09T01:35:08;16.00;99.90
3492;DHT22;1760;52.480;13.422;2022-09-09T01:37:36;16.00;99.90
3492;DHT22;1760;52.480;13.422;2022-09-09T01:40:03;16.00;99.90
3492;DHT22;1760;52.480;13.422;2022-09-09T01:42:31;16.00;99.90
3492;DHT22;1760;52.480;13.422;2022-09-09T01:44:58;16.00;99.90
3492;DHT22;1760;52.480;13.422;2022-09-09T01:47:27;16.00;99.90
3492;DHT22;1760;52.480;13.422;2022-09-09T01:49:54;15.90;99.90
3492;DHT22;1760;52.480;13.422;2022-09-09T01:52:21;15.90;99.90
3492;DHT22;1760;52.480;13.422;2022-09-09T01:54:48;15.90;99.90
3492;DHT22;1760;52.480;13.422;2022-09-09T01:57:30;15.80;99.90
3492;DHT22;1760;52.480;13.422;2022-09-09T02:00:05;15.90;99.90
3492;DHT22;1760;52.480;13.422;2022-09-09T02:02:36;15.80;99.90
3492;DHT22;1760;52.480;13.422;2022-09-09T02:05:22;15.80;99.90
3492;DHT22;1760;52.480;13.422;2022-09-09T02:07:59;15.90;99.90
3492;DHT22;1760;52.480;13.422;2022-09-09T02:10:31;15.80;99.90
3492;DHT22;1760;52.480;13.422;2022-09-09T02:13:02;15.80;99.90
3492;DHT22;1760;52.480;13.422;2022-09-09T02:15:34;15.70;99.90
3492;DHT22;1760;52.480;13.422;2022-09-09T02:18:05;15.70;99.90
3492;DHT22;1760;52.480;13.422;2022-09-09T02:20:35;15.70;99.90
3492;DHT22;1760;52.480;13.422;2022-09-09T02:23:04;15.70;99.90
3492;DHT22;1760;52.480;13.422;2022-09-09T02:25:33;15.70;99.90
3492;DHT22;1760;52.480;13.422;2022-09-09T02:28:03;15.70;99.90
3492;DHT22;1760;52.480;13.422;2022-09-09T02:30:44;15.70;99.90
3492;DHT22;1760;52.480;13.422;2022-09-09T02:33:13;15.70;99.90
3492;DHT22;1760;52.480;13.422;2022-09-09T02:35:42;15.80;99.90
3492;DHT22;1760;52.480;13.422;2022-09-09T02:38:13;15.70;99.90
3492;DHT22;1760;52.480;13.422;2022-09-09T02:40:40;15.70;99.90
3492;DHT22;1760;52.480;13.422;2022-09-09T02:43:07;15.70;99.90
3492;DHT22;1760;52.480;13.422;2022-09-09T02:45:41;15.60;99.90
3492;DHT22;1760;52.480;13.422;2022-09-09T02:48:14;15.60;99.90
3492;DHT22;1760;52.480;13.422;2022-09-09T02:50:52;15.60;99.90
3492;DHT22;1760;52.480;13.422;2022-09-09T02:53:23;15.60;99.90
3492;DHT22;1760;52.480;13.422;2022-09-09T02:55:55;15.50;99.90
3492;DHT22;1760;52.480;13.422;2022-09-09T02:58:25;15.50;99.90
3492;DHT22;1760;52.480;13.422;2022-09-09T03:00:52;15.50;99.90
3492;DHT22;1760;52.480;13.422;2022-09-09T03:03:20;15.50;99.90
3492;DHT22;1760;52.480;13.422;2022-09-09T03:05:47;15.50;99.90
3492;DHT22;1760;52.480;13.422;2022-09-09T03:08:15;15.50;99.90
3492;DHT22;1760;52.480;13.422;2022-09-09T03:10:42;15.50;99.90
3492;DHT22;1760;52.480;13.422;2022-09-09T03:13:09;15.40;99.90
3492;DHT22;1760;52.480;13.422;2022-09-09T03:15:36;15.40;99.90
3492;DHT22;1760;52.480;13.422;2022-09-09T03:18:03;15.40;99.90
3492;DHT22;1760;52.480;13.422;2022-09-09T03:20:31;15.40;99.90
3492;DHT22;1760;52.480;13.422;2022-09-09T03:23:00;15.40;99.90
3492;DHT22;1760;52.480;13.422;2022-09-09T03:25:27;15.40;99.90
3492;DHT22;1760;52.480;13.422;2022-09-09T03:27:54;15.40;99.90
3492;DHT22;1760;52.480;13.422;2022-09-09T03:30:21;15.40;99.90
3492;DHT22;1760;52.480;13.422;2022-09-09T03:33:03;15.40;99.90
3492;DHT22;1760;52.480;13.422;2022-09-09T03:35:31;15.40;99.90
3492;DHT22;1760;52.480;13.422;2022-09-09T03:37:58;15.40;99.90
3492;DHT22;1760;52.480;13.422;2022-09-09T03:40:26;15.40;99.90
3492;DHT22;1760;52.480;13.422;2022-09-09T03:42:53;15.30;99.90
3492;DHT22;1760;52.480;13.422;2022-09-09T03:45:19;15.30;99.90
3492;DHT22;1760;52.480;13.422;2022-09-09T03:47:48;15.30;99.90
3492;DHT22;1760;52.480;13.422;2022-09-09T03:50:15;15.30;99.90
3492;DHT22;1760;52.480;13.422;2022-09-09T03:52:45;15.30;99.90
3492;DHT22;1760;52.480;13.422;2022-09-09T03:55:12;15.30;99.90
3492;DHT22;1760;52.480;13.422;2022-09-09T03:57:38;15.30;99.90
3492;DHT22;1760;52.480;13.422;2022-09-09T04:00:07;15.20;99.90
3492;DHT22;1760;52.480;13.422;2022-09-09T04:02:34;15.20;99.90
3492;DHT22;1760;52.480;13.422;2022-09-09T04:05:00;15.20;99.90
3492;DHT22;1760;52.480;13.422;2022-09-09T04:07:27;15.20;99.90
3492;DHT22;1760;52.480;13.422;2022-09-09T04:09:55;15.20;99.90
3492;DHT22;1760;52.480;13.422;2022-09-09T04:12:22;15.20;99.90
3492;DHT22;1760;52.480;13.422;2022-09-09T04:14:49;15.10;99.90
3492;DHT22;1760;52.480;13.422;2022-09-09T04:17:16;15.10;99.90
3492;DHT22;1760;52.480;13.422;2022-09-09T04:19:47;15.20;99.90
3492;DHT22;1760;52.480;13.422;2022-09-09T04:22:13;15.20;99.90
3492;DHT22;1760;52.480;13.422;2022-09-09T04:24:41;15.20;99.90
3492;DHT22;1760;52.480;13.422;2022-09-09T04:27:11;15.10;99.90
3492;DHT22;1760;52.480;13.422;2022-09-09T04:29:37;15.10;99.90
3492;DHT22;1760;52.480;13.422;2022-09-09T04:32:04;15.20;99.90
3492;DHT22;1760;52.480;13.422;2022-09-09T04:34:31;15.10;99.90
3492;DHT22;1760;52.480;13.422;2022-09-09T04:36:58;15.20;99.90
3492;DHT22;1760;52.480;13.422;2022-09-09T04:39:25;15.10;99.90
3492;DHT22;1760;52.480;13.422;2022-09-09T04:41:52;15.20;99.90
3492;DHT22;1760;52.480;13.422;2022-09-09T04:44:20;15.20;99.90
3492;DHT22;1760;52.480;13.422;2022-09-09T04:46:47;15.20;99.90
3492;DHT22;1760;52.480;13.422;2022-09-09T04:49:14;15.20;99.90
3492;DHT22;1760;52.480;13.422;2022-09-09T04:51:41;15.20;99.90
3492;DHT22;1760;52.480;13.422;2022-09-09T04:54:08;15.20;99.90
3492;DHT22;1760;52.480;13.422;2022-09-09T04:56:35;15.30;99.90
3492;DHT22;1760;52.480;13.422;2022-09-09T04:59:02;15.30;99.90
3492;DHT22;1760;52.480;13.422;2022-09-09T05:01:31;15.30;99.90
3492;DHT22;1760;52.480;13.422;2022-09-09T05:03:57;15.30;99.90
3492;DHT22;1760;52.480;13.422;2022-09-09T05:06:24;15.30;99.90
3492;DHT22;1760;52.480;13.422;2022-09-09T05:08:51;15.30;99.90
3492;DHT22;1760;52.480;13.422;2022-09-09T05:11:20;15.30;99.90
3492;DHT22;1760;52.480;13.422;2022-09-09T05:13:49;15.30;99.90
3492;DHT22;1760;52.480;13.422;2022-09-09T05:16:19;15.30;99.90
3492;DHT22;1760;52.480;13.422;2022-09-09T05:18:48;15.30;99.90
3492;DHT22;1760;52.480;13.422;2022-09-09T05:21:17;15.30;99.90
3492;DHT22;1760;52.480;13.422;2022-09-09T05:23:44;15.40;99.90
3492;DHT22;1760;52.480;13.422;2022-09-09T05:26:13;15.40;99.90
3492;DHT22;1760;52.480;13.422;2022-09-09T05:28:40;15.50;99.90
3492;DHT22;1760;52.480;13.422;2022-09-09T05:31:09;15.50;99.90
3492;DHT22;1760;52.480;13.422;2022-09-09T05:33:37;15.50;99.90
3492;DHT22;1760;52.480;13.422;2022-09-09T05:36:08;15.60;99.90
3492;DHT22;1760;52.480;13.422;2022-09-09T05:38:36;15.60;99.90
3492;DHT22;1760;52.480;13.422;2022-09-09T05:41:03;15.60;99.90
3492;DHT22;1760;52.480;13.422;2022-09-09T05:43:30;15.60;99.90
3492;DHT22;1760;52.480;13.422;2022-09-09T05:46:01;15.70;99.90
3492;DHT22;1760;52.480;13.422;2022-09-09T05:48:30;15.70;99.90
3492;DHT22;1760;52.480;13.422;2022-09-09T05:50:57;15.70;99.90
3492;DHT22;1760;52.480;13.422;2022-09-09T05:53:26;15.80;99.90
3492;DHT22;1760;52.480;13.422;2022-09-09T05:56:00;15.70;99.90
3492;DHT22;1760;52.480;13.422;2022-09-09T05:58:28;15.80;99.90
3492;DHT22;1760;52.480;13.422;2022-09-09T06:01:01;15.80;99.90
3492;DHT22;1760;52.480;13.422;2022-09-09T06:03:28;15.80;99.90
3492;DHT22;1760;52.480;13.422;2022-09-09T06:05:58;15.80;99.90
3492;DHT22;1760;52.480;13.422;2022-09-09T06:08:27;15.80;99.90
3492;DHT22;1760;52.480;13.422;2022-09-09T06:11:00;15.80;99.90
3492;DHT22;1760;52.480;13.422;2022-09-09T06:13:28;15.90;99.90
3492;DHT22;1760;52.480;13.422;2022-09-09T06:15:55;15.90;99.90
3492;DHT22;1760;52.480;13.422;2022-09-09T06:18:21;15.90;99.90
3492;DHT22;1760;52.480;13.422;2022-09-09T06:20:56;15.90;99.90
3492;DHT22;1760;52.480;13.422;2022-09-09T06:23:23;16.00;99.90
3492;DHT22;1760;52.480;13.422;2022-09-09T06:25:59;16.00;99.90
3492;DHT22;1760;52.480;13.422;2022-09-09T06:28:26;16.10;99.90
3492;DHT22;1760;52.480;13.422;2022-09-09T06:30:57;16.10;99.90
3492;DHT22;1760;52.480;13.422;2022-09-09T06:33:25;16.30;99.90
3492;DHT22;1760;52.480;13.422;2022-09-09T06:35:51;16.30;99.90
3492;DHT22;1760;52.480;13.422;2022-09-09T06:38:18;16.40;99.90
3492;DHT22;1760;52.480;13.422;2022-09-09T06:40:52;16.50;99.90
3492;DHT22;1760;52.480;13.422;2022-09-09T06:43:19;16.70;99.90
3492;DHT22;1760;52.480;13.422;2022-09-09T06:45:53;16.80;99.90
3492;DHT22;1760;52.480;13.422;2022-09-09T06:48:20;16.90;99.90
3492;DHT22;1760;52.480;13.422;2022-09-09T06:50:47;17.00;99.90
3492;DHT22;1760;52.480;13.422;2022-09-09T06:53:16;17.10;99.90
3492;DHT22;1760;52.480;13.422;2022-09-09T06:55:44;17.20;99.90
3492;DHT22;1760;52.480;13.422;2022-09-09T06:58:13;17.20;99.90
3492;DHT22;1760;52.480;13.422;2022-09-09T07:00:39;17.20;99.90
3492;DHT22;1760;52.480;13.422;2022-09-09T07:03:06;17.20;99.90
3492;DHT22;1760;52.480;13.422;2022-09-09T07:05:33;17.20;99.90
3492;DHT22;1760;52.480;13.422;2022-09-09T07:08:00;17.20;99.90
3492;DHT22;1760;52.480;13.422;2022-09-09T07:10:27;17.20;99.90
3492;DHT22;1760;52.480;13.422;2022-09-09T07:12:56;17.30;99.90
3492;DHT22;1760;52.480;13.422;2022-09-09T07:15:24;17.40;99.90
3492;DHT22;1760;52.480;13.422;2022-09-09T07:17:52;17.40;99.90
3492;DHT22;1760;52.480;13.422;2022-09-09T07:20:19;17.50;99.90
3492;DHT22;1760;52.480;13.422;2022-09-09T07:22:46;17.60;99.90
3492;DHT22;1760;52.480;13.422;2022-09-09T07:25:13;17.60;99.90
3492;DHT22;1760;52.480;13.422;2022-09-09T07:27:42;17.70;99.90
3492;DHT22;1760;52.480;13.422;2022-09-09T07:30:10;17.80;99.90
3492;DHT22;1760;52.480;13.422;2022-09-09T07:32:38;17.80;99.90
3492;DHT22;1760;52.480;13.422;2022-09-09T07:35:06;17.90;99.90
3492;DHT22;1760;52.480;13.422;2022-09-09T07:37:36;18.00;99.90
3492;DHT22;1760;52.480;13.422;2022-09-09T07:40:03;18.10;99.90
3492;DHT22;1760;52.480;13.422;2022-09-09T07:42:31;18.20;99.90
3492;DHT22;1760;52.480;13.422;2022-09-09T07:44:57;18.30;99.90
3492;DHT22;1760;52.480;13.422;2022-09-09T07:47:24;18.50;99.90
3492;DHT22;1760;52.480;13.422;2022-09-09T07:49:53;18.60;99.90
3492;DHT22;1760;52.480;13.422;2022-09-09T07:52:20;18.70;99.90
3492;DHT22;1760;52.480;13.422;2022-09-09T07:54:47;18.80;99.90
3492;DHT22;1760;52.480;13.422;2022-09-09T07:57:13;19.00;99.90
3492;DHT22;1760;52.480;13.422;2022-09-09T07:59:41;19.20;99.90
3492;DHT22;1760;52.480;13.422;2022-09-09T08:02:08;19.30;99.90
3492;DHT22;1760;52.480;13.422;2022-09-09T08:04:35;19.50;99.90
3492;DHT22;1760;52.480;13.422;2022-09-09T08:07:03;19.60;99.90
3492;DHT22;1760;52.480;13.422;2022-09-09T08:09:30;19.90;99.90
3492;DHT22;1760;52.480;13.422;2022-09-09T08:11:59;20.50;99.90
3492;DHT22;1760;52.480;13.422;2022-09-09T08:14:26;22.10;99.90
3492;DHT22;1760;52.480;13.422;2022-09-09T08:16:53;23.70;99.90
3492;DHT22;1760;52.480;13.422;2022-09-09T08:19:20;24.70;99.90
3492;DHT22;1760;52.480;13.422;2022-09-09T08:21:47;24.70;99.90
3492;DHT22;1760;52.480;13.422;2022-09-09T08:24:16;24.60;99.90
3492;DHT22;1760;52.480;13.422;2022-09-09T08:26:47;24.30;99.90
3492;DHT22;1760;52.480;13.422;2022-09-09T08:29:15;24.00;99.90
3492;DHT22;1760;52.480;13.422;2022-09-09T08:31:44;23.60;99.90
3492;DHT22;1760;52.480;13.422;2022-09-09T08:34:11;23.20;99.90
3492;DHT22;1760;52.480;13.422;2022-09-09T08:36:39;23.00;99.90
3492;DHT22;1760;52.480;13.422;2022-09-09T08:39:08;23.00;99.90
3492;DHT22;1760;52.480;13.422;2022-09-09T08:41:55;23.00;99.90
3492;DHT22;1760;52.480;13.422;2022-09-09T08:44:31;22.80;99.90
3492;DHT22;1760;52.480;13.422;2022-09-09T08:47:11;22.50;99.90
3492;DHT22;1760;52.480;13.422;2022-09-09T08:50:01;22.30;99.90
3492;DHT22;1760;52.480;13.422;2022-09-09T08:52:37;21.90;99.90
3492;DHT22;1760;52.480;13.422;2022-09-09T08:55:15;21.60;99.90
3492;DHT22;1760;52.480;13.422;2022-09-09T08:57:49;21.40;99.90
3492;DHT22;1760;52.480;13.422;2022-09-09T09:00:17;21.20;99.90
3492;DHT22;1760;52.480;13.422;2022-09-09T09:02:52;21.10;99.90
3492;DHT22;1760;52.480;13.422;2022-09-09T09:05:28;21.40;99.90
3492;DHT22;1760;52.480;13.422;2022-09-09T09:08:07;21.70;99.90
3492;DHT22;1760;52.480;13.422;2022-09-09T09:10:44;22.10;99.90
3492;DHT22;1760;52.480;13.422;2022-09-09T09:13:19;22.70;99.90
3492;DHT22;1760;52.480;13.422;2022-09-09T09:15:50;24.10;99.90
3492;DHT22;1760;52.480;13.422;2022-09-09T09:18:18;25.00;99.90
3492;DHT22;1760;52.480;13.422;2022-09-09T09:20:54;25.60;99.90
3492;DHT22;1760;52.480;13.422;2022-09-09T09:23:30;25.90;99.90
3492;DHT22;1760;52.480;13.422;2022-09-09T09:26:01;26.30;99.90
3492;DHT22;1760;52.480;13.422;2022-09-09T09:28:31;27.10;99.90
3492;DHT22;1760;52.480;13.422;2022-09-09T09:31:01;28.10;99.90
3492;DHT22;1760;52.480;13.422;2022-09-09T09:33:35;28.90;99.90
3492;DHT22;1760;52.480;13.422;2022-09-09T09:36:06;29.50;99.60
3492;DHT22;1760;52.480;13.422;2022-09-09T09:38:34;30.10;97.60
3492;DHT22;1760;52.480;13.422;2022-09-09T09:41:02;30.60;94.00
3492;DHT22;1760;52.480;13.422;2022-09-09T09:43:32;30.90;91.10
3492;DHT22;1760;52.480;13.422;2022-09-09T09:45:59;31.40;90.10
3492;DHT22;1760;52.480;13.422;2022-09-09T09:48:26;31.80;86.10
3492;DHT22;1760;52.480;13.422;2022-09-09T09:50:56;32.00;82.20
3492;DHT22;1760;52.480;13.422;2022-09-09T09:53:25;32.20;79.60
3492;DHT22;1760;52.480;13.422;2022-09-09T09:56:08;32.30;78.60
3492;DHT22;1760;52.480;13.422;2022-09-09T09:58:49;32.40;76.20
3492;DHT22;1760;52.480;13.422;2022-09-09T10:01:21;32.40;74.90
3492;DHT22;1760;52.480;13.422;2022-09-09T10:03:51;32.30;74.70
3492;DHT22;1760;52.480;13.422;2022-09-09T10:06:29;32.40;74.00
3492;DHT22;1760;52.480;13.422;2022-09-09T10:08:56;32.40;70.80
3492;DHT22;1760;52.480;13.422;2022-09-09T10:11:33;31.90;71.00
3492;DHT22;1760;52.480;13.422;2022-09-09T10:14:15;30.80;74.20
3492;DHT22;1760;52.480;13.422;2022-09-09T10:17:02;29.80;78.30
3492;DHT22;1760;52.480;13.422;2022-09-09T10:19:34;29.30;80.60
3492;DHT22;1760;52.480;13.422;2022-09-09T10:22:11;29.30;81.30
3492;DHT22;1760;52.480;13.422;2022-09-09T10:25:10;29.30;80.30
3492;DHT22;1760;52.480;13.422;2022-09-09T10:31:10;28.90;85.30
3492;DHT22;1760;52.480;13.422;2022-09-09T10:33:49;29.00;84.70
3492;DHT22;1760;52.480;13.422;2022-09-09T10:36:19;28.80;85.00
3492;DHT22;1760;52.480;13.422;2022-09-09T10:38:47;28.30;87.40
3492;DHT22;1760;52.480;13.422;2022-09-09T10:41:21;27.80;89.90
3492;DHT22;1760;52.480;13.422;2022-09-09T10:44:01;27.40;90.80
3492;DHT22;1760;52.480;13.422;2022-09-09T10:46:37;27.10;92.70
3492;DHT22;1760;52.480;13.422;2022-09-09T10:49:17;26.90;93.20
3492;DHT22;1760;52.480;13.422;2022-09-09T10:51:53;26.90;93.60
3492;DHT22;1760;52.480;13.422;2022-09-09T10:54:31;26.90;95.40
3492;DHT22;1760;52.480;13.422;2022-09-09T10:57:05;27.00;95.40
3492;DHT22;1760;52.480;13.422;2022-09-09T10:59:45;27.20;95.30
3492;DHT22;1760;52.480;13.422;2022-09-09T11:02:18;27.50;94.90
3492;DHT22;1760;52.480;13.422;2022-09-09T11:04:50;27.70;95.40
3492;DHT22;1760;52.480;13.422;2022-09-09T11:07:27;27.70;94.80
3492;DHT22;1760;52.480;13.422;2022-09-09T11:09:59;27.70;94.80
3492;DHT22;1760;52.480;13.422;2022-09-09T11:12:27;27.50;95.10
3492;DHT22;1760;52.480;13.422;2022-09-09T11:14:59;27.30;95.10
3492;DHT22;1760;52.480;13.422;2022-09-09T11:17:35;27.10;95.20
3492;DHT22;1760;52.480;13.422;2022-09-09T11:20:05;27.00;96.10
3492;DHT22;1760;52.480;13.422;2022-09-09T11:22:36;26.70;97.00
3492;DHT22;1760;52.480;13.422;2022-09-09T11:25:07;26.40;97.90
3492;DHT22;1760;52.480;13.422;2022-09-09T11:27:38;26.20;99.30
3492;DHT22;1760;52.480;13.422;2022-09-09T11:30:39;25.90;99.90
3492;DHT22;1760;52.480;13.422;2022-09-09T11:36:43;25.40;99.90
3492;DHT22;1760;52.480;13.422;2022-09-09T11:42:16;25.30;99.90
3492;DHT22;1760;52.480;13.422;2022-09-09T11:44:44;25.30;99.90
3492;DHT22;1760;52.480;13.422;2022-09-09T11:47:19;25.10;99.90
3492;DHT22;1760;52.480;13.422;2022-09-09T11:49:48;25.00;99.90
3492;DHT22;1760;52.480;13.422;2022-09-09T11:52:22;25.00;99.90
3492;DHT22;1760;52.480;13.422;2022-09-09T11:54:51;24.90;99.90
3492;DHT22;1760;52.480;13.422;2022-09-09T11:57:25;24.80;99.90
3492;DHT22;1760;52.480;13.422;2022-09-09T11:59:54;24.70;99.90
3492;DHT22;1760;52.480;13.422;2022-09-09T12:02:48;24.70;99.90
3492;DHT22;1760;52.480;13.422;2022-09-09T12:05:16;24.60;99.90
3492;DHT22;1760;52.480;13.422;2022-09-09T12:07:50;24.60;99.90
3492;DHT22;1760;52.480;13.422;2022-09-09T12:10:22;24.70;99.90
3492;DHT22;1760;52.480;13.422;2022-09-09T12:12:50;24.80;99.90
3492;DHT22;1760;52.480;13.422;2022-09-09T12:15:23;24.90;99.90
3492;DHT22;1760;52.480;13.422;2022-09-09T12:17:52;25.00;99.90
3492;DHT22;1760;52.480;13.422;2022-09-09T12:20:23;25.00;99.90
3492;DHT22;1760;52.480;13.422;2022-09-09T12:26:21;25.00;99.90
3492;DHT22;1760;52.480;13.422;2022-09-09T12:29:05;24.90;99.90
3492;DHT22;1760;52.480;13.422;2022-09-09T12:31:42;24.80;99.90
3492;DHT22;1760;52.480;13.422;2022-09-09T12:34:29;24.70;99.90
3492;DHT22;1760;52.480;13.422;2022-09-09T12:37:03;24.70;99.90
3492;DHT22;1760;52.480;13.422;2022-09-09T12:39:35;24.60;99.90
3492;DHT22;1760;52.480;13.422;2022-09-09T12:42:04;24.60;99.90
3492;DHT22;1760;52.480;13.422;2022-09-09T12:44:31;24.60;99.90
3492;DHT22;1760;52.480;13.422;2022-09-09T12:47:01;24.60;99.90
3492;DHT22;1760;52.480;13.422;2022-09-09T12:49:31;24.60;99.90
3492;DHT22;1760;52.480;13.422;2022-09-09T12:52:03;24.50;99.90
3492;DHT22;1760;52.480;13.422;2022-09-09T12:54:31;24.50;99.90
3492;DHT22;1760;52.480;13.422;2022-09-09T12:56:59;24.40;99.90
3492;DHT22;1760;52.480;13.422;2022-09-09T12:59:27;24.30;99.90
3492;DHT22;1760;52.480;13.422;2022-09-09T13:02:01;24.30;99.90
3492;DHT22;1760;52.480;13.422;2022-09-09T13:04:28;24.30;99.90
3492;DHT22;1760;52.480;13.422;2022-09-09T13:07:12;24.30;99.90
3492;DHT22;1760;52.480;13.422;2022-09-09T13:09:39;24.30;99.90
3492;DHT22;1760;52.480;13.422;2022-09-09T13:12:10;24.30;99.90
3492;DHT22;1760;52.480;13.422;2022-09-09T13:14:43;24.30;99.90
3492;DHT22;1760;52.480;13.422;2022-09-09T13:17:19;24.30;99.90
3492;DHT22;1760;52.480;13.422;2022-09-09T13:19:47;24.20;99.90
3492;DHT22;1760;52.480;13.422;2022-09-09T13:22:21;24.20;99.90
3492;DHT22;1760;52.480;13.422;2022-09-09T13:24:59;24.20;99.90
3492;DHT22;1760;52.480;13.422;2022-09-09T13:27:30;24.10;99.90
3492;DHT22;1760;52.480;13.422;2022-09-09T13:29:57;24.10;99.90
3492;DHT22;1760;52.480;13.422;2022-09-09T13:32:25;24.10;99.90
3492;DHT22;1760;52.480;13.422;2022-09-09T13:34:54;24.30;99.90
3492;DHT22;1760;52.480;13.422;2022-09-09T13:37:27;24.30;99.90
3492;DHT22;1760;52.480;13.422;2022-09-09T13:39:56;24.40;99.90
3492;DHT22;1760;52.480;13.422;2022-09-09T13:42:25;24.40;99.90
3492;DHT22;1760;52.480;13.422;2022-09-09T13:44:53;24.40;99.90
3492;DHT22;1760;52.480;13.422;2022-09-09T13:47:27;24.40;99.90
3492;DHT22;1760;52.480;13.422;2022-09-09T13:49:55;24.40;99.90
3492;DHT22;1760;52.480;13.422;2022-09-09T13:52:23;24.60;99.90
3492;DHT22;1760;52.480;13.422;2022-09-09T13:54:52;24.80;99.90
3492;DHT22;1760;52.480;13.422;2022-09-09T13:57:22;24.90;99.90
3492;DHT22;1760;52.480;13.422;2022-09-09T13:59:51;25.00;99.90
3492;DHT22;1760;52.480;13.422;2022-09-09T14:02:18;25.00;99.90
3492;DHT22;1760;52.480;13.422;2022-09-09T14:04:46;24.90;99.90
3492;DHT22;1760;52.480;13.422;2022-09-09T14:07:18;24.60;99.90
3492;DHT22;1760;52.480;13.422;2022-09-09T14:09:57;24.40;99.90
3492;DHT22;1760;52.480;13.422;2022-09-09T14:12:25;24.20;99.90
3492;DHT22;1760;52.480;13.422;2022-09-09T14:14:52;24.10;99.90
3492;DHT22;1760;52.480;13.422;2022-09-09T14:17:22;24.00;99.90
3492;DHT22;1760;52.480;13.422;2022-09-09T14:19:50;24.00;99.90
3492;DHT22;1760;52.480;13.422;2022-09-09T14:22:17;24.00;99.90
3492;DHT22;1760;52.480;13.422;2022-09-09T14:24:44;24.10;99.90
3492;DHT22;1760;52.480;13.422;2022-09-09T14:27:12;24.20;99.90
3492;DHT22;1760;52.480;13.422;2022-09-09T14:29:39;24.30;99.90
3492;DHT22;1760;52.480;13.422;2022-09-09T14:32:05;24.50;99.90
3492;DHT22;1760;52.480;13.422;2022-09-09T14:34:32;24.60;99.90
3492;DHT22;1760;52.480;13.422;2022-09-09T14:37:00;24.60;99.90
3492;DHT22;1760;52.480;13.422;2022-09-09T14:39:27;24.60;99.90
3492;DHT22;1760;52.480;13.422;2022-09-09T14:41:55;24.60;99.90
3492;DHT22;1760;52.480;13.422;2022-09-09T14:44:23;24.70;99.90
3492;DHT22;1760;52.480;13.422;2022-09-09T14:46:50;24.60;99.90
3492;DHT22;1760;52.480;13.422;2022-09-09T14:49:16;24.50;99.90
3492;DHT22;1760;52.480;13.422;2022-09-09T14:51:43;24.30;99.90
3492;DHT22;1760;52.480;13.422;2022-09-09T14:54:10;24.20;99.90
3492;DHT22;1760;52.480;13.422;2022-09-09T14:56:37;24.20;99.90
3492;DHT22;1760;52.480;13.422;2022-09-09T14:59:04;24.10;99.90
3492;DHT22;1760;52.480;13.422;2022-09-09T15:01:32;24.00;99.90
3492;DHT22;1760;52.480;13.422;2022-09-09T15:04:02;23.80;99.90
3492;DHT22;1760;52.480;13.422;2022-09-09T15:06:30;23.80;99.90
3492;DHT22;1760;52.480;13.422;2022-09-09T15:08:59;23.70;99.90
3492;DHT22;1760;52.480;13.422;2022-09-09T15:11:36;23.70;99.90
3492;DHT22;1760;52.480;13.422;2022-09-09T15:14:04;23.60;99.90
3492;DHT22;1760;52.480;13.422;2022-09-09T15:16:32;23.60;99.90
3492;DHT22;1760;52.480;13.422;2022-09-09T15:19:01;23.60;99.90
3492;DHT22;1760;52.480;13.422;2022-09-09T15:21:29;23.70;99.90
3492;DHT22;1760;52.480;13.422;2022-09-09T15:23:57;23.80;99.90
3492;DHT22;1760;52.480;13.422;2022-09-09T15:26:24;23.90;99.90
3492;DHT22;1760;52.480;13.422;2022-09-09T15:28:51;24.00;99.90
3492;DHT22;1760;52.480;13.422;2022-09-09T15:31:20;24.00;99.90
3492;DHT22;1760;52.480;13.422;2022-09-09T15:33:49;24.10;99.30
3492;DHT22;1760;52.480;13.422;2022-09-09T15:36:19;24.20;99.40
3492;DHT22;1760;52.480;13.422;2022-09-09T15:38:46;24.20;98.50
3492;DHT22;1760;52.480;13.422;2022-09-09T15:41:13;24.10;99.20
3492;DHT22;1760;52.480;13.422;2022-09-09T15:43:55;24.10;99.80
3492;DHT22;1760;52.480;13.422;2022-09-09T15:46:26;24.00;99.90
3492;DHT22;1760;52.480;13.422;2022-09-09T15:48:56;23.90;99.90
3492;DHT22;1760;52.480;13.422;2022-09-09T15:51:23;23.90;99.40
3492;DHT22;1760;52.480;13.422;2022-09-09T15:53:54;23.80;99.90
3492;DHT22;1760;52.480;13.422;2022-09-09T15:56:22;23.80;99.90
3492;DHT22;1760;52.480;13.422;2022-09-09T15:58:49;23.90;99.90
3492;DHT22;1760;52.480;13.422;2022-09-09T16:01:16;23.80;99.90
3492;DHT22;1760;52.480;13.422;2022-09-09T16:03:45;23.80;99.90
3492;DHT22;1760;52.480;13.422;2022-09-09T16:06:14;23.80;99.90
3492;DHT22;1760;52.480;13.422;2022-09-09T16:08:43;23.80;99.90
3492;DHT22;1760;52.480;13.422;2022-09-09T16:11:12;23.90;99.90
3492;DHT22;1760;52.480;13.422;2022-09-09T16:13:41;23.90;99.90
3492;DHT22;1760;52.480;13.422;2022-09-09T16:16:10;23.90;99.90
3492;DHT22;1760;52.480;13.422;2022-09-09T16:18:39;23.90;99.90
3492;DHT22;1760;52.480;13.422;2022-09-09T16:21:07;23.90;99.90